Time;durP1;ratioP1;P1;durP2;ratioP2;P2;SDS_P1;SDS_P2;PMS_P1;PMS_P2;Temp;Humidity;BMP_temperature;BMP_pressure;BME280_temperature;BME280_humidity;BME280_pressure;Samples;Min_cycle;Max_cycle;Signal;HPM_P1;HPM_P2
2023/04/17 00:02:09;;;;;;;15.23;6.60;;;8.10;99.90;;;;;;5003397;28;20488;-76
2023/04/17 00:04:39;;;;;;;8.00;5.97;;;8.10;99.90;;;;;;5004057;28;20397;-76
2023/04/17 00:07:06;;;;;;;10.25;6.78;;;8.10;99.90;;;;;;5002106;28;20061;-76
2023/04/17 00:09:31;;;;;;;16.23;7.53;;;8.10;99.90;;;;;;5004039;28;20104;-77
2023/04/17 00:11:57;;;;;;;9.00;6.72;;;8.10;99.90;;;;;;4986321;28;20485;-77
2023/04/17 00:14:23;;;;;;;10.80;6.20;;;8.10;99.90;;;;;;5003133;28;20057;-76
2023/04/17 00:16:49;;;;;;;10.52;6.28;;;8.10;99.90;;;;;;5004454;28;20052;-77
2023/04/17 00:19:15;;;;;;;14.70;7.38;;;8.10;99.90;;;;;;5004153;28;20122;-77
2023/04/17 00:21:40;;;;;;;10.70;6.60;;;8.10;99.90;;;;;;5002645;28;20042;-76
2023/04/17 00:24:06;;;;;;;8.88;6.00;;;8.10;99.90;;;;;;5004175;28;20570;-76
2023/04/17 00:26:33;;;;;;;17.55;6.28;;;8.10;99.90;;;;;;5002677;28;20053;-77
2023/04/17 00:29:02;;;;;;;12.32;6.65;;;8.00;99.90;;;;;;5004049;28;20053;-76
2023/04/17 00:31:27;;;;;;;12.07;7.10;;;8.00;99.90;;;;;;4986123;28;20049;-76
2023/04/17 00:33:53;;;;;;;9.73;7.03;;;8.00;99.90;;;;;;5004585;28;20507;-77
2023/04/17 00:36:19;;;;;;;11.07;8.07;;;8.00;99.90;;;;;;5002036;28;20096;-77
2023/04/17 00:38:44;;;;;;;10.30;6.95;;;8.00;99.90;;;;;;5006588;28;20049;-77
2023/04/17 00:41:10;;;;;;;13.20;6.88;;;8.10;99.90;;;;;;5007652;28;20683;-78
2023/04/17 00:43:36;;;;;;;7.50;6.82;;;8.00;99.90;;;;;;5006181;28;20694;-78
2023/04/17 00:46:04;;;;;;;14.57;8.05;;;8.00;99.90;;;;;;5007644;28;20304;-77
2023/04/17 00:48:31;;;;;;;10.07;5.78;;;8.00;99.90;;;;;;5006398;28;20048;-77
2023/04/17 00:51:00;;;;;;;12.98;8.77;;;8.00;99.90;;;;;;5007399;28;20550;-78
2023/04/17 00:53:30;;;;;;;10.68;7.00;;;8.00;99.90;;;;;;5006684;28;20042;-77
2023/04/17 00:55:57;;;;;;;15.48;6.53;;;8.00;99.90;;;;;;5007587;28;20050;-77
2023/04/17 00:58:24;;;;;;;9.73;6.43;;;8.00;99.90;;;;;;5007831;28;20061;-77
2023/04/17 01:00:50;;;;;;;13.60;7.10;;;8.00;99.90;;;;;;5007599;28;20375;-78
2023/04/17 01:03:16;;;;;;;7.63;6.18;;;8.00;99.90;;;;;;5005917;28;20049;-78
2023/04/17 01:05:43;;;;;;;10.88;5.88;;;8.00;99.90;;;;;;5007217;28;20127;-78
2023/04/17 01:08:09;;;;;;;15.30;7.80;;;8.00;99.90;;;;;;4988942;28;20050;-78
2023/04/17 01:10:35;;;;;;;10.98;6.88;;;7.90;99.90;;;;;;5078452;22;20054;-78
2023/04/17 01:13:03;;;;;;;11.05;7.32;;;8.00;99.90;;;;;;5005578;28;20402;-79
2023/04/17 01:15:28;;;;;;;13.65;9.35;;;8.00;99.90;;;;;;5005605;28;20037;-79
2023/04/17 01:17:54;;;;;;;14.25;6.45;;;8.00;99.90;;;;;;5007555;28;20133;-78
2023/04/17 01:20:20;;;;;;;13.38;8.40;;;8.00;99.90;;;;;;5005436;28;20088;-78
2023/04/17 01:22:51;;;;;;;10.30;7.13;;;7.90;99.90;;;;;;5006023;28;20148;-77
2023/04/17 01:25:17;;;;;;;11.88;6.15;;;7.90;99.90;;;;;;5007179;28;20140;-78
2023/04/17 01:27:43;;;;;;;10.38;8.13;;;7.90;99.90;;;;;;5007070;28;20153;-77
2023/04/17 01:30:09;;;;;;;10.52;7.95;;;7.90;99.90;;;;;;5007208;28;20666;-77
2023/04/17 01:32:34;;;;;;;10.15;8.20;;;7.90;99.90;;;;;;5007232;28;20595;-77
2023/04/17 01:35:00;;;;;;;10.88;5.63;;;7.90;99.90;;;;;;5006802;28;20088;-79
2023/04/17 01:37:26;;;;;;;16.13;7.47;;;7.90;99.90;;;;;;5005810;28;20049;-79
2023/04/17 01:39:51;;;;;;;14.15;7.75;;;7.90;99.90;;;;;;5006938;28;20586;-78
2023/04/17 01:42:17;;;;;;;11.52;6.90;;;7.90;99.90;;;;;;5006990;28;20033;-78
2023/04/17 01:44:43;;;;;;;8.65;7.53;;;7.80;99.90;;;;;;5006760;28;20046;-78
2023/04/17 01:47:08;;;;;;;10.02;6.32;;;7.80;99.90;;;;;;5005266;28;20100;-76
2023/04/17 01:49:34;;;;;;;11.75;6.43;;;7.80;99.90;;;;;;5005596;28;20045;-77
2023/04/17 01:52:00;;;;;;;13.35;8.73;;;7.80;99.90;;;;;;5004378;28;20547;-79
2023/04/17 01:54:25;;;;;;;12.98;7.28;;;7.80;99.90;;;;;;5004920;28;20042;-78
2023/04/17 01:56:51;;;;;;;14.18;8.73;;;7.80;99.90;;;;;;5005843;28;20073;-79
2023/04/17 01:59:17;;;;;;;12.43;9.15;;;7.80;99.90;;;;;;5006389;28;20030;-79
2023/04/17 02:01:44;;;;;;;12.70;8.68;;;7.80;99.90;;;;;;5005106;28;20042;-78
2023/04/17 02:04:09;;;;;;;13.25;8.00;;;7.90;99.90;;;;;;5006829;28;20049;-78
2023/04/17 02:06:35;;;;;;;10.68;8.88;;;7.80;99.90;;;;;;5004219;28;20038;-78
2023/04/17 02:09:01;;;;;;;15.43;7.68;;;7.80;99.90;;;;;;5006109;28;20452;-78
2023/04/17 02:11:27;;;;;;;16.48;7.40;;;7.90;99.90;;;;;;5005751;28;20038;-78
2023/04/17 02:13:53;;;;;;;18.33;7.82;;;7.80;99.90;;;;;;5006838;28;20077;-78
2023/04/17 02:16:20;;;;;;;10.82;8.25;;;7.80;99.90;;;;;;5005876;28;20478;-79
2023/04/17 02:18:46;;;;;;;15.95;9.75;;;7.80;99.90;;;;;;5004559;28;20603;-79
2023/04/17 02:21:12;;;;;;;16.63;7.90;;;7.80;99.90;;;;;;5004192;28;20050;-78
2023/04/17 02:23:38;;;;;;;17.63;9.20;;;7.80;99.90;;;;;;5005823;28;20037;-78
2023/04/17 02:26:03;;;;;;;13.48;7.00;;;7.80;99.90;;;;;;5005786;28;20041;-78
2023/04/17 02:28:29;;;;;;;13.63;6.97;;;7.80;99.90;;;;;;5004601;28;20069;-79
2023/04/17 02:30:55;;;;;;;11.52;6.95;;;7.80;99.90;;;;;;5005987;28;20045;-79
2023/04/17 02:33:20;;;;;;;18.15;8.45;;;7.80;99.90;;;;;;5006528;28;20052;-79
2023/04/17 02:35:46;;;;;;;10.50;7.57;;;7.80;99.90;;;;;;5003754;28;20136;-79
2023/04/17 02:38:12;;;;;;;10.95;6.82;;;7.80;99.90;;;;;;5005070;28;20125;-78
2023/04/17 02:40:37;;;;;;;9.60;6.28;;;7.80;99.90;;;;;;5005479;28;20511;-78
2023/04/17 02:43:03;;;;;;;13.00;9.43;;;7.80;99.90;;;;;;5006124;28;20046;-79
2023/04/17 02:45:29;;;;;;;12.80;7.53;;;7.70;99.90;;;;;;5004206;28;20038;-79
2023/04/17 02:47:55;;;;;;;12.10;6.07;;;7.70;99.90;;;;;;5005600;28;20129;-77
2023/04/17 02:50:21;;;;;;;11.88;7.53;;;7.70;99.90;;;;;;5005974;28;20117;-79
2023/04/17 02:52:46;;;;;;;11.38;9.32;;;7.70;99.90;;;;;;5004137;28;20103;-78
2023/04/17 02:55:12;;;;;;;11.98;7.13;;;7.70;99.90;;;;;;5005731;28;20042;-77
2023/04/17 02:57:38;;;;;;;14.18;6.80;;;7.70;99.90;;;;;;5005604;28;20042;-78
2023/04/17 03:00:07;;;;;;;11.25;6.95;;;7.70;99.90;;;;;;5005503;28;20042;-78
2023/04/17 03:02:33;;;;;;;12.40;7.82;;;7.70;99.90;;;;;;5005155;28;20049;-78
2023/04/17 03:05:03;;;;;;;9.27;6.22;;;7.70;99.90;;;;;;5005532;28;20137;-79
2023/04/17 03:07:28;;;;;;;8.73;6.72;;;7.70;99.90;;;;;;5004162;28;20045;-77
2023/04/17 03:09:56;;;;;;;12.50;8.13;;;7.70;99.90;;;;;;5005472;28;20451;-78
2023/04/17 03:12:22;;;;;;;18.05;8.70;;;7.70;99.90;;;;;;5005894;28;20057;-78
2023/04/17 03:14:47;;;;;;;15.35;7.43;;;7.70;99.90;;;;;;5004597;28;20511;-79
2023/04/17 03:17:15;;;;;;;16.05;9.23;;;7.70;99.90;;;;;;5004786;28;20046;-77
2023/04/17 03:19:41;;;;;;;11.00;7.20;;;7.60;99.90;;;;;;5004733;28;20137;-77
2023/04/17 03:22:06;;;;;;;12.73;6.82;;;7.70;99.90;;;;;;5004024;28;20125;-79
2023/04/17 03:24:32;;;;;;;14.82;7.55;;;7.60;99.90;;;;;;5005175;28;20046;-77
2023/04/17 03:26:58;;;;;;;16.45;8.02;;;7.60;99.90;;;;;;5003600;28;20057;-77
2023/04/17 03:29:24;;;;;;;17.05;7.18;;;7.60;99.90;;;;;;5005711;28;20037;-78
2023/04/17 03:31:50;;;;;;;14.20;5.93;;;7.60;99.90;;;;;;5003799;28;20099;-76
2023/04/17 03:34:17;;;;;;;19.02;8.15;;;7.60;99.90;;;;;;5003400;28;20085;-78
2023/04/17 03:36:42;;;;;;;12.25;7.60;;;7.60;99.90;;;;;;5003851;28;20050;-78
2023/04/17 03:39:08;;;;;;;10.18;6.90;;;7.60;99.90;;;;;;5004725;28;20041;-78
2023/04/17 03:41:34;;;;;;;11.27;7.57;;;7.60;99.90;;;;;;5004238;28;20081;-77
2023/04/17 03:43:59;;;;;;;12.68;8.07;;;7.60;99.90;;;;;;5004771;28;20041;-77
2023/04/17 03:46:25;;;;;;;17.45;8.82;;;7.60;99.90;;;;;;5003250;28;20095;-77
2023/04/17 03:48:50;;;;;;;11.30;7.07;;;7.60;99.90;;;;;;5004097;28;20064;-76
2023/04/17 03:51:16;;;;;;;13.38;8.52;;;7.60;99.90;;;;;;5003883;28;20081;-78
2023/04/17 03:53:42;;;;;;;18.83;8.93;;;7.50;99.90;;;;;;4986923;28;20038;-78
2023/04/17 03:56:07;;;;;;;15.63;9.50;;;7.60;99.90;;;;;;5004524;28;20048;-76
2023/04/17 03:58:33;;;;;;;8.65;7.72;;;7.50;99.90;;;;;;5004479;28;20566;-76
2023/04/17 04:01:00;;;;;;;9.55;6.68;;;7.50;99.90;;;;;;5004337;28;20045;-77
2023/04/17 04:03:27;;;;;;;11.85;7.05;;;7.60;99.90;;;;;;5004292;28;20507;-77
2023/04/17 04:05:52;;;;;;;8.10;6.50;;;7.50;99.90;;;;;;5004178;28;20042;-77
2023/04/17 04:08:18;;;;;;;30.25;9.02;;;7.50;99.90;;;;;;5004443;28;20184;-78
2023/04/17 04:10:44;;;;;;;7.35;6.25;;;7.50;99.90;;;;;;5002621;28;20165;-76
2023/04/17 04:13:11;;;;;;;12.13;6.70;;;7.50;99.90;;;;;;5008785;28;20056;-77
2023/04/17 04:15:36;;;;;;;12.82;7.65;;;7.50;99.90;;;;;;5010330;28;20048;-76
2023/04/17 04:18:02;;;;;;;37.08;6.88;;;7.40;99.90;;;;;;5010698;28;20656;-77
2023/04/17 04:20:28;;;;;;;17.90;6.47;;;7.40;99.90;;;;;;5009654;28;20056;-76
2023/04/17 04:22:56;;;;;;;14.20;6.38;;;7.40;99.90;;;;;;5010394;28;20041;-78
2023/04/17 04:25:22;;;;;;;11.65;5.47;;;7.40;99.90;;;;;;5009938;28;20045;-77
2023/04/17 04:27:51;;;;;;;9.55;5.35;;;7.40;99.90;;;;;;5010513;28;20369;-77
2023/04/17 04:30:18;;;;;;;12.50;8.15;;;7.40;99.90;;;;;;5011007;28;20134;-77
2023/04/17 04:32:44;;;;;;;11.05;7.82;;;7.40;99.90;;;;;;5009127;28;20054;-76
2023/04/17 04:35:11;;;;;;;17.60;8.57;;;7.40;99.90;;;;;;5010707;28;20527;-78
2023/04/17 04:37:36;;;;;;;11.68;7.32;;;7.50;99.90;;;;;;5009726;28;20464;-77
2023/04/17 04:40:09;;;;;;;14.55;7.60;;;7.50;99.90;;;;;;5011002;28;20038;-78
2023/04/17 04:42:40;;;;;;;22.92;9.68;;;7.40;99.90;;;;;;5010240;28;20042;-78
2023/04/17 04:45:07;;;;;;;9.40;6.22;;;7.40;99.90;;;;;;5011148;28;20053;-77
2023/04/17 04:47:33;;;;;;;20.20;6.68;;;7.40;99.90;;;;;;5009046;28;20538;-77
2023/04/17 04:49:59;;;;;;;8.90;6.55;;;7.40;99.90;;;;;;5010674;28;20042;-77
2023/04/17 04:52:25;;;;;;;9.63;6.82;;;7.40;99.90;;;;;;5009349;28;20477;-77
2023/04/17 04:54:51;;;;;;;21.20;6.85;;;7.40;99.90;;;;;;5011081;28;20045;-78
2023/04/17 04:57:17;;;;;;;14.43;7.82;;;7.40;99.90;;;;;;5009040;28;20057;-78
2023/04/17 04:59:42;;;;;;;11.68;6.70;;;7.40;99.90;;;;;;5009955;28;20030;-78
2023/04/17 05:02:08;;;;;;;19.80;8.35;;;7.40;99.90;;;;;;5010492;28;20112;-76
2023/04/17 05:04:34;;;;;;;26.73;6.40;;;7.40;99.90;;;;;;5010262;28;20048;-77
2023/04/17 05:06:59;;;;;;;14.35;5.85;;;7.40;99.90;;;;;;5009790;28;20038;-77
2023/04/17 05:09:25;;;;;;;43.97;8.07;;;7.40;99.90;;;;;;5009851;28;20052;-76
2023/04/17 05:11:53;;;;;;;25.83;7.80;;;7.30;99.90;;;;;;5010769;28;20352;-77
2023/04/17 05:14:19;;;;;;;8.38;5.93;;;7.40;99.90;;;;;;5009798;28;20046;-77
2023/04/17 05:16:45;;;;;;;24.13;6.82;;;7.30;99.90;;;;;;5008933;28;20571;-78
2023/04/17 05:19:10;;;;;;;9.95;7.35;;;7.30;99.90;;;;;;5010352;28;20116;-77
2023/04/17 05:21:36;;;;;;;10.55;6.72;;;7.30;99.90;;;;;;4991608;28;20749;-76
2023/04/17 05:24:02;;;;;;;14.82;6.20;;;7.30;99.90;;;;;;5005469;28;20070;-77
2023/04/17 05:26:27;;;;;;;7.68;6.10;;;7.30;99.90;;;;;;4999273;28;20034;-77
2023/04/17 05:28:53;;;;;;;9.98;6.32;;;7.30;99.90;;;;;;5020532;28;20100;-78
2023/04/17 05:31:19;;;;;;;8.90;5.38;;;7.30;99.90;;;;;;5005888;28;20096;-78
2023/04/17 05:33:45;;;;;;;14.48;7.03;;;7.30;99.90;;;;;;4988651;28;20073;-78
2023/04/17 05:36:10;;;;;;;12.80;5.78;;;7.40;99.90;;;;;;5021246;28;20591;-77
2023/04/17 05:38:36;;;;;;;12.68;6.93;;;7.30;99.90;;;;;;5005369;28;20041;-77
2023/04/17 05:41:01;;;;;;;26.15;7.90;;;7.30;99.90;;;;;;5005437;28;20046;-77
2023/04/17 05:43:27;;;;;;;10.82;6.78;;;7.40;99.90;;;;;;5006594;28;20103;-78
2023/04/17 05:45:53;;;;;;;33.95;7.72;;;7.30;99.90;;;;;;5005622;28;20045;-78
2023/04/17 05:48:18;;;;;;;16.58;6.63;;;7.40;99.90;;;;;;4988671;28;20052;-78
2023/04/17 05:50:44;;;;;;;8.98;5.22;;;7.30;99.90;;;;;;5004376;28;20096;-82
2023/04/17 05:53:10;;;;;;;10.32;6.90;;;7.40;99.90;;;;;;5006227;28;20606;-77
2023/04/17 05:55:35;;;;;;;16.08;7.72;;;7.30;99.90;;;;;;5005343;28;20079;-77
2023/04/17 05:58:01;;;;;;;12.10;6.90;;;7.30;99.90;;;;;;4997545;28;20496;-76
2023/04/17 06:00:27;;;;;;;10.10;7.38;;;7.30;99.90;;;;;;5002254;28;20040;-79
2023/04/17 06:02:53;;;;;;;13.63;7.18;;;7.30;99.90;;;;;;5004444;28;20042;-78
2023/04/17 06:05:20;;;;;;;15.90;5.88;;;7.30;99.90;;;;;;4998067;28;20046;-78
2023/04/17 06:07:45;;;;;;;12.20;7.60;;;7.40;99.90;;;;;;5000941;28;20050;-78
2023/04/17 06:10:11;;;;;;;8.77;5.90;;;7.40;99.90;;;;;;5002052;28;20069;-78
2023/04/17 06:12:37;;;;;;;10.98;8.10;;;7.40;99.90;;;;;;4986293;28;20254;-77
2023/04/17 06:15:04;;;;;;;8.98;6.45;;;7.40;99.90;;;;;;5003599;28;20045;-77
2023/04/17 06:17:30;;;;;;;15.25;5.97;;;7.40;99.90;;;;;;5015231;28;20042;-77
2023/04/17 06:19:56;;;;;;;11.30;7.57;;;7.40;99.90;;;;;;5003708;28;20049;-76
2023/04/17 06:22:21;;;;;;;11.02;7.82;;;7.40;99.90;;;;;;5003343;28;20054;-77
2023/04/17 06:24:47;;;;;;;9.07;7.65;;;7.40;99.90;;;;;;5004872;28;20266;-77
2023/04/17 06:27:13;;;;;;;10.13;8.80;;;7.50;99.90;;;;;;5004564;28;20048;-77
2023/04/17 06:29:39;;;;;;;11.18;7.78;;;7.50;99.90;;;;;;4997585;28;20180;-77
2023/04/17 06:32:05;;;;;;;9.02;6.10;;;7.50;99.90;;;;;;5003078;28;20471;-77
2023/04/17 06:34:32;;;;;;;14.40;7.97;;;7.50;99.90;;;;;;5002488;28;20038;-77
2023/04/17 06:36:59;;;;;;;11.88;7.97;;;7.50;99.90;;;;;;5002142;28;20172;-75
2023/04/17 06:39:25;;;;;;;8.45;5.72;;;7.50;99.90;;;;;;5003021;28;20050;-76
2023/04/17 06:41:50;;;;;;;13.75;7.28;;;7.60;99.90;;;;;;5005011;28;20061;-76
2023/04/17 06:44:17;;;;;;;10.45;7.00;;;7.60;99.90;;;;;;5003252;28;20089;-76
2023/04/17 06:46:42;;;;;;;15.68;7.32;;;7.60;99.90;;;;;;5003802;28;20045;-77
2023/04/17 06:49:08;;;;;;;15.73;9.65;;;7.60;99.90;;;;;;5003493;28;20041;-76
2023/04/17 06:51:33;;;;;;;11.88;8.30;;;7.70;99.90;;;;;;5002618;28;20052;-77
2023/04/17 06:53:59;;;;;;;9.30;7.47;;;7.70;99.90;;;;;;5003080;28;20050;-76
2023/04/17 06:56:25;;;;;;;11.45;6.90;;;7.70;99.90;;;;;;4987573;28;20121;-77
2023/04/17 06:58:52;;;;;;;9.57;7.28;;;7.70;99.90;;;;;;5020380;28;20088;-77
2023/04/17 07:01:18;;;;;;;9.52;6.00;;;7.70;99.90;;;;;;5003307;28;20050;-76
2023/04/17 07:03:43;;;;;;;10.60;7.50;;;7.70;99.90;;;;;;5003943;28;20413;-77
2023/04/17 07:06:09;;;;;;;12.48;6.22;;;7.80;99.90;;;;;;5003567;28;20396;-77
2023/04/17 07:08:34;;;;;;;11.00;7.78;;;7.80;99.90;;;;;;4999346;28;20529;-77
2023/04/17 07:11:01;;;;;;;12.43;7.47;;;7.90;99.90;;;;;;5002657;28;20060;-77
2023/04/17 07:13:30;;;;;;;15.05;6.40;;;7.90;99.90;;;;;;5004245;28;20042;-77
2023/04/17 07:15:56;;;;;;;11.75;6.55;;;7.90;99.90;;;;;;5004048;28;20121;-76
2023/04/17 07:18:22;;;;;;;10.27;6.30;;;7.90;99.90;;;;;;5003947;28;20481;-77
2023/04/17 07:20:48;;;;;;;9.77;8.13;;;7.90;99.90;;;;;;5003001;28;20551;-77
2023/04/17 07:23:14;;;;;;;11.57;7.22;;;7.90;99.90;;;;;;5004461;28;20121;-77
2023/04/17 07:25:39;;;;;;;12.82;7.47;;;7.90;99.90;;;;;;5001249;28;20049;-76
2023/04/17 07:28:05;;;;;;;11.20;6.95;;;8.00;99.90;;;;;;5003886;28;20492;-77
2023/04/17 07:30:31;;;;;;;9.88;6.55;;;8.00;99.90;;;;;;5002916;28;20038;-76
2023/04/17 07:32:57;;;;;;;11.27;7.57;;;8.00;99.90;;;;;;5002716;28;20120;-77
2023/04/17 07:35:22;;;;;;;13.60;8.63;;;8.00;99.90;;;;;;5003298;28;20069;-77
2023/04/17 07:37:48;;;;;;;11.80;6.85;;;8.00;99.90;;;;;;5002684;28;20042;-77
2023/04/17 07:40:15;;;;;;;8.50;7.65;;;8.00;99.90;;;;;;5003290;28;20100;-77
2023/04/17 07:42:41;;;;;;;10.45;9.10;;;8.10;99.90;;;;;;5003708;28;20042;-76
2023/04/17 07:45:07;;;;;;;10.40;6.03;;;8.10;99.90;;;;;;5003607;28;20038;-77
2023/04/17 07:47:33;;;;;;;10.27;6.75;;;8.20;99.90;;;;;;5001952;28;20073;-77
2023/04/17 07:49:59;;;;;;;15.18;6.82;;;8.20;99.90;;;;;;5002461;28;20038;-77
2023/04/17 07:52:25;;;;;;;7.72;6.15;;;8.20;99.90;;;;;;5003797;28;20350;-77
2023/04/17 07:54:50;;;;;;;8.32;6.82;;;8.20;99.90;;;;;;5003903;28;20038;-76
2023/04/17 07:57:16;;;;;;;10.30;6.38;;;8.20;99.90;;;;;;5003883;28;20060;-77
2023/04/17 07:59:42;;;;;;;10.30;6.07;;;8.20;99.90;;;;;;5003142;28;20125;-76
2023/04/17 08:02:08;;;;;;;9.13;7.30;;;8.20;99.90;;;;;;5003732;28;20124;-77
2023/04/17 08:04:34;;;;;;;10.55;7.00;;;8.20;99.90;;;;;;5003373;28;20049;-77
2023/04/17 08:07:00;;;;;;;12.32;6.70;;;8.30;99.90;;;;;;5002112;28;20455;-77
2023/04/17 08:09:26;;;;;;;7.85;6.30;;;8.30;99.90;;;;;;5002277;28;20105;-76
2023/04/17 08:11:51;;;;;;;10.60;7.32;;;8.30;99.90;;;;;;5002511;28;20135;-77
2023/04/17 08:14:19;;;;;;;10.70;7.65;;;8.30;99.90;;;;;;5002246;28;20088;-76
2023/04/17 08:16:46;;;;;;;11.05;6.38;;;8.40;99.90;;;;;;5002047;28;20041;-76
2023/04/17 08:19:12;;;;;;;15.48;8.05;;;8.50;99.90;;;;;;4987924;28;20050;-76
2023/04/17 08:21:38;;;;;;;16.65;8.90;;;8.50;99.90;;;;;;5002408;28;20033;-77
2023/04/17 08:24:03;;;;;;;10.77;6.95;;;8.50;99.90;;;;;;5001745;28;20169;-77
2023/04/17 08:26:29;;;;;;;11.65;7.75;;;8.50;99.90;;;;;;5001297;28;20042;-77
2023/04/17 08:28:55;;;;;;;8.63;5.57;;;8.50;99.90;;;;;;5001952;28;20042;-77
2023/04/17 08:31:21;;;;;;;15.88;6.47;;;8.50;99.90;;;;;;5003613;28;20112;-77
2023/04/17 08:33:46;;;;;;;14.05;5.88;;;8.50;99.90;;;;;;4985522;28;20085;-77
2023/04/17 08:36:12;;;;;;;10.60;6.15;;;8.60;99.90;;;;;;5001146;28;20042;-76
2023/04/17 08:38:37;;;;;;;14.18;6.45;;;8.60;99.90;;;;;;4999784;28;20077;-76
2023/04/17 08:41:09;;;;;;;7.20;6.18;;;8.60;99.90;;;;;;5003199;28;20038;-77
2023/04/17 08:43:35;;;;;;;10.07;6.07;;;8.60;99.90;;;;;;5002974;28;20034;-77
2023/04/17 08:46:02;;;;;;;7.70;5.50;;;8.60;99.90;;;;;;5003258;28;20037;-77
2023/04/17 08:48:29;;;;;;;9.90;4.82;;;8.70;99.90;;;;;;4998217;28;20117;-77
2023/04/17 08:50:55;;;;;;;15.93;7.25;;;8.70;99.90;;;;;;5002287;28;20113;-77
2023/04/17 08:53:20;;;;;;;12.98;5.68;;;8.70;99.90;;;;;;5002297;28;21610;-77
2023/04/17 08:55:47;;;;;;;11.73;6.57;;;8.80;99.90;;;;;;5003131;28;20069;-75
2023/04/17 08:58:13;;;;;;;13.00;6.07;;;8.70;99.90;;;;;;5002974;28;20034;-76
2023/04/17 09:00:41;;;;;;;9.13;6.50;;;8.80;99.90;;;;;;5006346;28;20046;-76
2023/04/17 09:03:08;;;;;;;11.20;6.75;;;8.80;99.90;;;;;;5005276;28;20046;-76
2023/04/17 09:05:35;;;;;;;15.40;6.97;;;8.90;99.90;;;;;;4996758;28;20549;-76
2023/04/17 09:08:16;;;;;;;10.00;6.75;;;8.90;99.90;;;;;;5005778;28;20053;-76
2023/04/17 09:10:52;;;;;;;12.50;7.72;;;8.90;99.90;;;;;;5006269;28;20046;-76
2023/04/17 09:13:21;;;;;;;11.82;5.55;;;9.10;99.90;;;;;;5006735;28;20045;-76
2023/04/17 09:16:02;;;;;;;14.50;8.13;;;9.10;99.90;;;;;;5005965;28;20033;-76
2023/04/17 09:18:29;;;;;;;8.18;7.00;;;9.20;99.90;;;;;;5004837;28;20045;-76
2023/04/17 09:20:57;;;;;;;18.55;7.97;;;9.30;99.90;;;;;;4993918;28;20042;-76
2023/04/17 09:23:27;;;;;;;12.00;7.18;;;9.40;99.90;;;;;;5005444;28;20061;-76
2023/04/17 09:26:06;;;;;;;17.73;9.57;;;9.40;99.90;;;;;;5006942;28;20037;-76
2023/04/17 09:28:37;;;;;;;8.52;5.35;;;9.40;99.90;;;;;;5003448;28;20053;-75
2023/04/17 09:31:25;;;;;;;9.40;5.68;;;9.50;99.90;;;;;;4993300;28;20231;-76
2023/04/17 09:34:07;;;;;;;8.98;7.05;;;9.50;99.90;;;;;;5006041;28;20042;-76
2023/04/17 09:36:35;;;;;;;19.73;8.07;;;9.50;99.90;;;;;;4995789;28;20034;-77
2023/04/17 09:39:15;;;;;;;8.55;5.43;;;9.60;99.90;;;;;;5006447;28;20065;-76
2023/04/17 09:41:41;;;;;;;9.52;5.55;;;9.70;99.90;;;;;;4995064;28;20043;-74
2023/04/17 09:44:08;;;;;;;7.80;4.85;;;9.80;99.90;;;;;;5002049;28;20511;-75
2023/04/17 09:46:46;;;;;;;8.40;5.72;;;9.80;99.90;;;;;;5005532;28;20096;-75
2023/04/17 09:49:23;;;;;;;11.27;5.55;;;9.90;99.90;;;;;;4994788;28;20084;-75
2023/04/17 09:51:49;;;;;;;10.88;7.13;;;9.90;99.90;;;;;;5017833;28;20046;-74
2023/04/17 09:54:18;;;;;;;8.07;5.40;;;10.00;99.90;;;;;;5004056;28;20064;-77
2023/04/17 09:56:46;;;;;;;10.75;5.25;;;10.00;99.90;;;;;;5005184;28;20165;-76
2023/04/17 09:59:12;;;;;;;8.30;5.30;;;10.00;99.90;;;;;;5005202;28;20038;-77
2023/04/17 10:01:38;;;;;;;9.93;5.82;;;10.10;99.90;;;;;;5003722;28;20189;-75
2023/04/17 10:04:04;;;;;;;11.25;5.35;;;10.10;99.90;;;;;;5006170;28;20424;-75
2023/04/17 10:06:32;;;;;;;9.27;5.00;;;10.20;99.90;;;;;;4994180;28;20073;-76
2023/04/17 10:08:58;;;;;;;10.50;6.25;;;10.30;99.90;;;;;;5005435;28;20042;-76
2023/04/17 10:11:27;;;;;;;13.65;5.80;;;10.30;99.90;;;;;;5002724;28;20049;-76
2023/04/17 10:14:12;;;;;;;9.50;5.40;;;10.40;99.90;;;;;;5004642;28;20046;-77
2023/04/17 10:16:40;;;;;;;12.95;5.57;;;10.50;99.90;;;;;;5003609;28;20122;-78
2023/04/17 10:19:35;;;;;;;10.32;5.03;;;10.50;99.90;;;;;;4985894;28;20116;-77
2023/04/17 10:22:19;;;;;;;9.45;5.30;;;10.60;99.90;;;;;;4968672;28;20058;-78
2023/04/17 10:24:47;;;;;;;9.88;5.47;;;10.70;99.90;;;;;;4982220;28;20053;-75
2023/04/17 10:27:25;;;;;;;9.75;5.10;;;10.80;99.90;;;;;;5003645;28;20107;-76
2023/04/17 10:29:51;;;;;;;12.73;4.93;;;10.90;99.90;;;;;;4988015;28;20046;-77
2023/04/17 10:32:17;;;;;;;11.48;5.90;;;10.90;99.90;;;;;;5004414;28;20073;-75
2023/04/17 10:34:43;;;;;;;12.63;4.90;;;11.00;99.90;;;;;;5004121;28;20038;-76
2023/04/17 10:37:13;;;;;;;10.13;4.18;;;11.10;99.90;;;;;;5003632;28;20046;-76
2023/04/17 10:39:58;;;;;;;8.73;5.00;;;11.10;99.90;;;;;;4995992;28;20109;-76
2023/04/17 10:42:25;;;;;;;9.15;4.80;;;11.10;99.90;;;;;;4990927;28;20035;-76
2023/04/17 10:44:56;;;;;;;10.80;5.75;;;11.10;99.90;;;;;;5000470;28;20121;-76
2023/04/17 10:47:32;;;;;;;10.35;3.80;;;11.10;99.90;;;;;;5003915;28;20041;-78
2023/04/17 10:50:00;;;;;;;10.13;5.05;;;11.20;99.90;;;;;;4993226;28;20504;-77
2023/04/17 10:52:32;;;;;;;9.45;5.47;;;11.30;99.90;;;;;;5004239;28;20116;-77
2023/04/17 10:55:09;;;;;;;10.80;4.97;;;11.20;99.90;;;;;;4992454;28;20034;-77
2023/04/17 10:57:56;;;;;;;8.00;4.60;;;11.30;99.90;;;;;;5003931;28;20044;-76
2023/04/17 11:00:37;;;;;;;8.77;5.22;;;11.40;99.90;;;;;;5004416;28;20049;-77
2023/04/17 11:03:04;;;;;;;7.40;4.90;;;11.40;99.90;;;;;;5003780;28;20476;-78
2023/04/17 11:05:30;;;;;;;10.50;5.75;;;11.40;99.90;;;;;;5003398;28;20074;-78
2023/04/17 11:07:57;;;;;;;8.23;4.60;;;11.50;99.90;;;;;;5003441;28;20090;-78
2023/04/17 11:10:23;;;;;;;11.88;5.13;;;11.50;99.90;;;;;;5003654;28;20077;-79
2023/04/17 11:12:52;;;;;;;9.27;5.35;;;11.50;99.90;;;;;;5003247;28;20050;-78
2023/04/17 11:15:28;;;;;;;9.35;4.03;;;11.60;99.90;;;;;;5001342;28;20126;-77
2023/04/17 11:17:55;;;;;;;9.20;4.38;;;11.60;99.90;;;;;;4992533;28;20057;-78
2023/04/17 11:20:23;;;;;;;9.65;5.20;;;11.60;99.90;;;;;;4998547;28;20034;-78
2023/04/17 11:22:48;;;;;;;10.15;5.57;;;11.70;99.90;;;;;;4982436;28;20130;-77
2023/04/17 11:25:25;;;;;;;8.32;5.35;;;11.70;99.90;;;;;;4984775;28;20121;-75
2023/04/17 11:27:57;;;;;;;10.50;5.32;;;11.80;99.90;;;;;;4989568;28;20046;-75
2023/04/17 11:30:28;;;;;;;9.27;4.38;;;11.80;99.90;;;;;;5000002;28;20034;-75
2023/04/17 11:33:00;;;;;;;10.15;4.82;;;11.80;99.90;;;;;;5002543;28;20042;-76
2023/04/17 11:35:30;;;;;;;16.93;7.10;;;11.80;99.90;;;;;;5001378;28;20070;-77
2023/04/17 11:38:22;;;;;;;9.57;5.05;;;11.90;99.90;;;;;;5003673;28;20050;-76
2023/04/17 11:40:59;;;;;;;8.15;4.80;;;11.90;99.90;;;;;;4997988;28;20053;-77
2023/04/17 11:43:35;;;;;;;9.52;5.20;;;12.00;99.90;;;;;;5000575;28;20042;-78
2023/04/17 11:46:01;;;;;;;7.85;4.15;;;12.00;99.90;;;;;;5002582;28;20041;-78
2023/04/17 11:48:29;;;;;;;9.75;5.00;;;12.00;99.90;;;;;;5002900;28;20061;-78
2023/04/17 11:50:56;;;;;;;8.65;5.30;;;12.10;99.90;;;;;;4999135;28;20046;-76
2023/04/17 11:53:22;;;;;;;10.77;4.88;;;12.00;99.90;;;;;;4999814;28;20034;-78
2023/04/17 11:56:08;;;;;;;12.32;4.85;;;12.10;99.90;;;;;;5000482;28;20109;-76
2023/04/17 11:58:53;;;;;;;8.50;4.45;;;12.10;99.90;;;;;;5002264;28;20042;-77
2023/04/17 12:01:24;;;;;;;10.60;4.57;;;12.20;99.90;;;;;;5003786;28;20057;-79
2023/04/17 12:03:56;;;;;;;5.57;3.85;;;12.20;99.90;;;;;;5001228;28;20056;-78
2023/04/17 12:06:26;;;;;;;9.82;4.70;;;12.20;99.90;;;;;;4982518;28;20050;-78
2023/04/17 12:08:54;;;;;;;8.88;4.75;;;12.20;99.90;;;;;;4986096;28;20124;-77
2023/04/17 12:11:30;;;;;;;8.95;5.60;;;12.20;99.90;;;;;;5003023;28;20057;-77
2023/04/17 12:13:56;;;;;;;10.85;4.65;;;12.30;99.90;;;;;;5003835;28;20099;-77
2023/04/17 12:16:23;;;;;;;8.70;5.18;;;12.30;99.90;;;;;;5004114;28;20042;-78
2023/04/17 12:18:49;;;;;;;12.48;6.75;;;12.40;99.90;;;;;;5001858;28;20048;-77
2023/04/17 12:21:15;;;;;;;11.63;5.72;;;12.30;99.90;;;;;;4998547;28;20120;-77
2023/04/17 12:23:41;;;;;;;13.57;5.53;;;12.30;99.90;;;;;;4969986;28;20054;-79
2023/04/17 12:26:07;;;;;;;11.25;5.22;;;12.40;99.90;;;;;;5003709;28;20065;-77
2023/04/17 12:28:33;;;;;;;11.98;6.55;;;12.30;99.90;;;;;;4985245;28;20125;-79
2023/04/17 12:30:59;;;;;;;12.25;5.28;;;12.30;99.90;;;;;;5003890;28;20145;-78
2023/04/17 12:33:25;;;;;;;11.70;5.68;;;12.40;99.90;;;;;;5002760;28;20050;-77
2023/04/17 12:35:51;;;;;;;11.15;5.82;;;12.40;99.90;;;;;;5003795;28;20038;-77
2023/04/17 12:38:16;;;;;;;13.70;6.28;;;12.40;99.90;;;;;;4997813;28;20058;-78
2023/04/17 12:40:43;;;;;;;9.43;5.30;;;12.50;99.90;;;;;;4986322;28;20046;-78
2023/04/17 12:43:12;;;;;;;10.27;5.80;;;12.50;99.90;;;;;;5003682;28;20046;-79
2023/04/17 12:45:38;;;;;;;11.23;5.78;;;12.60;99.90;;;;;;5006365;28;20049;-78
2023/04/17 12:48:05;;;;;;;13.05;6.22;;;12.60;99.90;;;;;;5003483;28;20033;-79
2023/04/17 12:50:31;;;;;;;13.23;6.18;;;12.60;99.90;;;;;;5005434;28;20046;-77